This is the latest recevied weather packets stored in our database for station/object OH2TI. If no packets are shown the sender has not sent any weather packets the latest 1 day(s).
| Time | Temp. | Humidity | Pressure | Rain* | Wind** | Luminosity | Snow |
|---|---|---|---|---|---|---|---|
| 1836274541 | 15° C | 92% | 1005.9 hPa | - | 1.34 m/s, 210° | - | - |
| 1836274491 | 15° C | 94% | 1005.5 hPa | - | 3.13 m/s, 191° | - | - |
| 1836273911 | 15° C | 92% | 1006 hPa | - | 1.34 m/s, 193° | - | - |
| 1778040364 | 3.33° C | 73% | 1007.5 hPa | - | 0.89 m/s, 313° | - | - |
| 1778040021 | 3.33° C | 74% | 1007.5 hPa | - | 1.34 m/s, 299° | - | - |
| 1778039222 | 2.78° C | 76% | 1007.3 hPa | - | 1.34 m/s, 298° | - | - |
| 1778038412 | 2.22° C | 77% | 1007.2 hPa | - | 1.34 m/s, 304° | - | - |
| 1778037889 | 2.22° C | 77% | 1007.1 hPa | - | 0.89 m/s, 271° | - | - |
| 1778037182 | 2.22° C | 77% | 1007 hPa | - | 0.89 m/s, 312° | - | - |
| 1778036432 | 1.67° C | 78% | 1006.9 hPa | - | 0.89 m/s, 274° | - | - |
| 1778035939 | 1.67° C | 78% | 1006.8 hPa | - | 1.34 m/s, 265° | - | - |
| 1778035122 | 1.11° C | 79% | 1006.6 hPa | - | 1.34 m/s, 266° | - | - |
| 1778034644 | 1.11° C | 80% | 1006.6 hPa | - | 0.45 m/s, 284° | - | - |
| 1778034224 | 1.11° C | 80% | 1006.5 hPa | - | 0.45 m/s, 276° | - | - |
| 1778033709 | 1.11° C | 80% | 1006.5 hPa | - | 0.89 m/s, 256° | - | - |
| 1778033376 | 1.11° C | 80% | 1006.4 hPa | - | 0.45 m/s, 268° | - | - |
| 1778032654 | 1.11° C | 79% | 1006.2 hPa | - | 0.45 m/s, 267° | - | - |
| 1778032049 | 1.11° C | 79% | 1006.2 hPa | - | 0.45 m/s, 295° | - | - |
| 1778031579 | 1.67° C | 79% | 1006.2 hPa | - | 0.89 m/s, 311° | - | - |
| 1778031144 | 1.67° C | 79% | 1006.1 hPa | - | 1.34 m/s, 307° | - | - |
| 1778030549 | 1.67° C | 79% | 1006.1 hPa | - | 0.45 m/s, 302° | - | - |
| 1778029746 | 1.67° C | 78% | 1006 hPa | - | 0.45 m/s, 280° | - | - |
| 1778029219 | 1.67° C | 77% | 1006 hPa | - | 0.45 m/s, 281° | - | - |
| 1778028349 | 1.67° C | 77% | 1005.8 hPa | - | 0.89 m/s, 280° | - | - |
| 1778027959 | 1.67° C | 76% | 1005.7 hPa | - | 0.89 m/s, 277° | - | - |
* Rain since midnight (hover to see other rain measurements)
** Current wind speed in m/s (hover to see current wind gust speed)